sensor_id;sensor_type;location;lat;lon;timestamp;pressure;altitude;pressure_sealevel;temperature;humidity
73024;BME280;72676;47.526;8.538;2024-03-02T00:00:36;95334.25;;;8.76;75.66
73024;BME280;72676;47.526;8.538;2024-03-02T00:03:03;95331.50;;;8.77;75.76
73024;BME280;72676;47.526;8.538;2024-03-02T00:05:29;95338.34;;;8.78;75.59
73024;BME280;72676;47.526;8.538;2024-03-02T00:07:59;95332.81;;;8.81;75.91
73024;BME280;72676;47.526;8.538;2024-03-02T00:10:38;95328.13;;;8.85;75.54
73024;BME280;72676;47.526;8.538;2024-03-02T00:13:08;95323.94;;;8.92;75.49
73024;BME280;72676;47.526;8.538;2024-03-02T00:18:12;95318.72;;;8.74;75.60
73024;BME280;72676;47.526;8.538;2024-03-02T00:20:40;95331.78;;;8.74;75.91
73024;BME280;72676;47.526;8.538;2024-03-02T00:23:13;95336.53;;;8.79;75.52
73024;BME280;72676;47.526;8.538;2024-03-02T00:25:42;95334.63;;;8.63;76.08
73024;BME280;72676;47.526;8.538;2024-03-02T00:28:22;95339.31;;;8.60;75.79
73024;BME280;72676;47.526;8.538;2024-03-02T00:30:52;95338.78;;;8.57;75.71
73024;BME280;72676;47.526;8.538;2024-03-02T00:33:21;95349.97;;;8.32;75.79
73024;BME280;72676;47.526;8.538;2024-03-02T00:35:49;95350.44;;;8.18;76.12
73024;BME280;72676;47.526;8.538;2024-03-02T00:38:16;95355.78;;;8.26;76.44
73024;BME280;72676;47.526;8.538;2024-03-02T00:40:43;95359.03;;;8.28;75.64
73024;BME280;72676;47.526;8.538;2024-03-02T00:43:41;95361.84;;;8.17;76.23
73024;BME280;72676;47.526;8.538;2024-03-02T00:46:16;95360.50;;;8.13;76.28
73024;BME280;72676;47.526;8.538;2024-03-02T00:49:03;95358.25;;;8.27;75.69
73024;BME280;72676;47.526;8.538;2024-03-02T00:51:32;95354.13;;;8.25;75.49
73024;BME280;72676;47.526;8.538;2024-03-02T00:54:01;95354.00;;;8.26;75.54
73024;BME280;72676;47.526;8.538;2024-03-02T00:56:31;95356.31;;;8.29;76.15
73024;BME280;72676;47.526;8.538;2024-03-02T00:58:58;95353.69;;;8.29;75.90
73024;BME280;72676;47.526;8.538;2024-03-02T01:01:24;95359.88;;;8.28;75.56
73024;BME280;72676;47.526;8.538;2024-03-02T01:03:52;95357.41;;;8.27;75.68
73024;BME280;72676;47.526;8.538;2024-03-02T01:06:19;95344.75;;;8.32;75.55
73024;BME280;72676;47.526;8.538;2024-03-02T01:08:45;95349.00;;;8.33;75.41
73024;BME280;72676;47.526;8.538;2024-03-02T01:11:17;95348.63;;;8.28;75.35
73024;BME280;72676;47.526;8.538;2024-03-02T01:13:45;95351.63;;;8.33;75.42
73024;BME280;72676;47.526;8.538;2024-03-02T01:16:12;95350.03;;;8.40;75.07
73024;BME280;72676;47.526;8.538;2024-03-02T01:18:39;95354.31;;;8.41;75.06
73024;BME280;72676;47.526;8.538;2024-03-02T01:21:06;95356.84;;;8.33;75.37
73024;BME280;72676;47.526;8.538;2024-03-02T01:23:32;95355.09;;;8.24;75.43
73024;BME280;72676;47.526;8.538;2024-03-02T01:25:58;95367.91;;;8.08;75.88
73024;BME280;72676;47.526;8.538;2024-03-02T01:28:25;95369.19;;;7.77;76.61
73024;BME280;72676;47.526;8.538;2024-03-02T01:30:51;95370.22;;;7.84;75.63
73024;BME280;72676;47.526;8.538;2024-03-02T01:33:19;95356.50;;;7.91;76.11
73024;BME280;72676;47.526;8.538;2024-03-02T01:35:46;95348.75;;;7.99;75.71
73024;BME280;72676;47.526;8.538;2024-03-02T01:38:12;95353.13;;;8.08;75.22
73024;BME280;72676;47.526;8.538;2024-03-02T01:40:39;95352.94;;;8.10;75.23
73024;BME280;72676;47.526;8.538;2024-03-02T01:43:05;95352.28;;;8.08;75.08
73024;BME280;72676;47.526;8.538;2024-03-02T01:45:33;95361.91;;;7.71;75.73
73024;BME280;72676;47.526;8.538;2024-03-02T01:48:00;95372.28;;;7.80;75.41
73024;BME280;72676;47.526;8.538;2024-03-02T01:50:28;95364.44;;;7.90;75.62
73024;BME280;72676;47.526;8.538;2024-03-02T01:52:55;95359.75;;;7.93;75.40
73024;BME280;72676;47.526;8.538;2024-03-02T01:55:22;95357.25;;;8.01;75.58
73024;BME280;72676;47.526;8.538;2024-03-02T01:57:49;95358.94;;;7.93;76.25
73024;BME280;72676;47.526;8.538;2024-03-02T02:00:18;95369.22;;;7.94;76.19
73024;BME280;72676;47.526;8.538;2024-03-02T02:02:47;95362.59;;;7.73;77.11
73024;BME280;72676;47.526;8.538;2024-03-02T02:05:14;95364.91;;;7.76;76.96
73024;BME280;72676;47.526;8.538;2024-03-02T02:07:41;95361.88;;;7.80;76.98
73024;BME280;72676;47.526;8.538;2024-03-02T02:10:09;95360.38;;;7.78;77.22
73024;BME280;72676;47.526;8.538;2024-03-02T02:12:36;95350.88;;;7.86;77.67
73024;BME280;72676;47.526;8.538;2024-03-02T02:15:04;95338.06;;;7.93;77.49
73024;BME280;72676;47.526;8.538;2024-03-02T02:17:47;95351.53;;;7.88;77.68
73024;BME280;72676;47.526;8.538;2024-03-02T02:20:14;95359.66;;;7.85;78.32
73024;BME280;72676;47.526;8.538;2024-03-02T02:22:40;95366.91;;;7.91;78.64
73024;BME280;72676;47.526;8.538;2024-03-02T02:25:06;95355.66;;;7.91;78.77
73024;BME280;72676;47.526;8.538;2024-03-02T02:27:33;95346.28;;;7.98;78.16
73024;BME280;72676;47.526;8.538;2024-03-02T02:29:59;95344.94;;;7.94;78.31
73024;BME280;72676;47.526;8.538;2024-03-02T02:32:27;95340.69;;;7.93;78.74
73024;BME280;72676;47.526;8.538;2024-03-02T02:34:53;95330.97;;;7.95;78.30
73024;BME280;72676;47.526;8.538;2024-03-02T02:37:20;95343.34;;;7.83;78.48
73024;BME280;72676;47.526;8.538;2024-03-02T02:39:46;95336.19;;;7.85;78.58
73024;BME280;72676;47.526;8.538;2024-03-02T02:42:13;95336.59;;;7.90;78.83
73024;BME280;72676;47.526;8.538;2024-03-02T02:44:39;95323.69;;;7.89;78.82
73024;BME280;72676;47.526;8.538;2024-03-02T02:47:06;95324.94;;;7.85;78.98
73024;BME280;72676;47.526;8.538;2024-03-02T02:49:32;95323.69;;;7.89;78.37
73024;BME280;72676;47.526;8.538;2024-03-02T02:51:59;95318.50;;;7.89;77.56
73024;BME280;72676;47.526;8.538;2024-03-02T02:54:25;95320.00;;;7.91;77.74
73024;BME280;72676;47.526;8.538;2024-03-02T02:56:52;95311.91;;;7.85;77.13
73024;BME280;72676;47.526;8.538;2024-03-02T02:59:18;95321.75;;;7.64;77.68
73024;BME280;72676;47.526;8.538;2024-03-02T03:01:44;95324.25;;;7.56;78.51
73024;BME280;72676;47.526;8.538;2024-03-02T03:04:11;95324.66;;;7.61;78.18
73024;BME280;72676;47.526;8.538;2024-03-02T03:06:38;95321.50;;;7.67;77.87
73024;BME280;72676;47.526;8.538;2024-03-02T03:09:04;95327.63;;;7.66;77.91
73024;BME280;72676;47.526;8.538;2024-03-02T03:11:31;95321.75;;;7.64;77.91
73024;BME280;72676;47.526;8.538;2024-03-02T03:13:57;95326.97;;;7.64;77.93
73024;BME280;72676;47.526;8.538;2024-03-02T03:16:24;95321.31;;;7.68;77.65
73024;BME280;72676;47.526;8.538;2024-03-02T03:18:50;95325.00;;;7.75;77.73
73024;BME280;72676;47.526;8.538;2024-03-02T03:21:18;95316.88;;;7.78;77.25
73024;BME280;72676;47.526;8.538;2024-03-02T03:23:44;95320.31;;;7.79;77.58
73024;BME280;72676;47.526;8.538;2024-03-02T03:26:11;95318.09;;;7.84;76.99
73024;BME280;72676;47.526;8.538;2024-03-02T03:28:37;95320.44;;;7.87;77.03
73024;BME280;72676;47.526;8.538;2024-03-02T03:31:04;95316.41;;;7.92;77.06
73024;BME280;72676;47.526;8.538;2024-03-02T03:33:30;95323.03;;;7.87;76.52
73024;BME280;72676;47.526;8.538;2024-03-02T03:35:57;95328.69;;;7.82;76.70
73024;BME280;72676;47.526;8.538;2024-03-02T03:38:23;95326.06;;;7.82;76.28
73024;BME280;72676;47.526;8.538;2024-03-02T03:40:50;95314.50;;;7.85;76.16
73024;BME280;72676;47.526;8.538;2024-03-02T03:43:16;95321.88;;;7.72;76.21
73024;BME280;72676;47.526;8.538;2024-03-02T03:45:43;95330.75;;;7.79;76.19
73024;BME280;72676;47.526;8.538;2024-03-02T03:48:10;95331.84;;;7.76;76.22
73024;BME280;72676;47.526;8.538;2024-03-02T03:50:36;95340.41;;;7.69;75.79
73024;BME280;72676;47.526;8.538;2024-03-02T03:53:04;95337.19;;;7.75;74.88
73024;BME280;72676;47.526;8.538;2024-03-02T03:55:30;95337.75;;;7.78;75.02
73024;BME280;72676;47.526;8.538;2024-03-02T03:57:57;95328.41;;;7.76;74.16
73024;BME280;72676;47.526;8.538;2024-03-02T04:00:23;95337.63;;;7.70;74.50
73024;BME280;72676;47.526;8.538;2024-03-02T04:02:50;95334.66;;;7.65;74.96
73024;BME280;72676;47.526;8.538;2024-03-02T04:05:16;95334.31;;;7.78;75.17
73024;BME280;72676;47.526;8.538;2024-03-02T04:07:43;95343.13;;;7.77;75.33
73024;BME280;72676;47.526;8.538;2024-03-02T04:10:10;95330.34;;;7.74;75.06
73024;BME280;72676;47.526;8.538;2024-03-02T04:12:37;95333.38;;;7.69;75.89
73024;BME280;72676;47.526;8.538;2024-03-02T04:15:06;95329.53;;;7.73;75.82
73024;BME280;72676;47.526;8.538;2024-03-02T04:17:33;95317.63;;;7.71;76.22
73024;BME280;72676;47.526;8.538;2024-03-02T04:20:00;95314.88;;;7.72;76.57
73024;BME280;72676;47.526;8.538;2024-03-02T04:22:27;95314.72;;;7.74;76.85
73024;BME280;72676;47.526;8.538;2024-03-02T04:24:54;95318.88;;;7.67;76.92
73024;BME280;72676;47.526;8.538;2024-03-02T04:27:21;95332.50;;;7.51;77.50
73024;BME280;72676;47.526;8.538;2024-03-02T04:29:47;95325.22;;;7.55;77.30
73024;BME280;72676;47.526;8.538;2024-03-02T04:32:13;95328.38;;;7.58;77.49
73024;BME280;72676;47.526;8.538;2024-03-02T04:34:40;95329.19;;;7.59;77.70
73024;BME280;72676;47.526;8.538;2024-03-02T04:37:08;95332.78;;;7.58;77.88
73024;BME280;72676;47.526;8.538;2024-03-02T04:39:35;95333.28;;;7.61;78.07
73024;BME280;72676;47.526;8.538;2024-03-02T04:42:02;95331.81;;;7.59;77.74
73024;BME280;72676;47.526;8.538;2024-03-02T04:44:29;95336.84;;;7.60;78.42
73024;BME280;72676;47.526;8.538;2024-03-02T04:46:55;95338.50;;;7.61;78.31
73024;BME280;72676;47.526;8.538;2024-03-02T04:49:22;95329.47;;;7.56;78.42
73024;BME280;72676;47.526;8.538;2024-03-02T04:51:48;95329.63;;;7.54;79.06
73024;BME280;72676;47.526;8.538;2024-03-02T04:54:15;95335.38;;;7.58;79.01
73024;BME280;72676;47.526;8.538;2024-03-02T04:56:41;95330.25;;;7.66;79.08
73024;BME280;72676;47.526;8.538;2024-03-02T04:59:16;95346.84;;;7.65;79.20
73024;BME280;72676;47.526;8.538;2024-03-02T05:01:44;95343.13;;;7.77;79.10
73024;BME280;72676;47.526;8.538;2024-03-02T05:04:10;95346.66;;;7.76;79.04
73024;BME280;72676;47.526;8.538;2024-03-02T05:06:41;95349.53;;;7.82;78.89
73024;BME280;72676;47.526;8.538;2024-03-02T05:09:08;95349.44;;;7.74;78.87
73024;BME280;72676;47.526;8.538;2024-03-02T05:11:35;95353.25;;;7.80;78.74
73024;BME280;72676;47.526;8.538;2024-03-02T05:14:21;95359.03;;;7.74;78.37
73024;BME280;72676;47.526;8.538;2024-03-02T05:16:48;95354.66;;;7.65;78.79
73024;BME280;72676;47.526;8.538;2024-03-02T05:19:14;95356.03;;;7.69;78.98
73024;BME280;72676;47.526;8.538;2024-03-02T05:21:41;95351.78;;;7.68;79.01
73024;BME280;72676;47.526;8.538;2024-03-02T05:24:07;95354.91;;;7.71;78.84
73024;BME280;72676;47.526;8.538;2024-03-02T05:26:34;95351.88;;;7.76;78.74
73024;BME280;72676;47.526;8.538;2024-03-02T05:29:00;95358.25;;;7.64;79.18
73024;BME280;72676;47.526;8.538;2024-03-02T05:31:27;95359.63;;;7.68;78.89
73024;BME280;72676;47.526;8.538;2024-03-02T05:33:53;95365.94;;;7.56;79.22
73024;BME280;72676;47.526;8.538;2024-03-02T05:36:23;95362.66;;;7.63;79.02
73024;BME280;72676;47.526;8.538;2024-03-02T05:38:49;95361.38;;;7.67;79.01
73024;BME280;72676;47.526;8.538;2024-03-02T05:41:16;95357.56;;;7.62;78.87
73024;BME280;72676;47.526;8.538;2024-03-02T05:43:42;95364.03;;;7.58;78.80
73024;BME280;72676;47.526;8.538;2024-03-02T05:46:09;95360.03;;;7.63;78.58
73024;BME280;72676;47.526;8.538;2024-03-02T05:48:35;95359.63;;;7.68;78.52
73024;BME280;72676;47.526;8.538;2024-03-02T05:51:02;95356.31;;;7.66;78.31
73024;BME280;72676;47.526;8.538;2024-03-02T05:53:28;95355.78;;;7.62;78.25
73024;BME280;72676;47.526;8.538;2024-03-02T05:55:55;95352.53;;;7.51;79.21
73024;BME280;72676;47.526;8.538;2024-03-02T05:58:22;95360.34;;;7.51;78.80
73024;BME280;72676;47.526;8.538;2024-03-02T06:01:17;95355.25;;;7.59;79.15
73024;BME280;72676;47.526;8.538;2024-03-02T06:03:48;95356.47;;;7.64;78.88
73024;BME280;72676;47.526;8.538;2024-03-02T06:06:15;95362.34;;;7.66;78.54
73024;BME280;72676;47.526;8.538;2024-03-02T06:08:42;95366.47;;;7.69;78.04
73024;BME280;72676;47.526;8.538;2024-03-02T06:11:08;95366.06;;;7.64;78.69
73024;BME280;72676;47.526;8.538;2024-03-02T06:13:35;95362.47;;;7.74;78.43
73024;BME280;72676;47.526;8.538;2024-03-02T06:16:01;95368.41;;;7.67;78.29
73024;BME280;72676;47.526;8.538;2024-03-02T06:18:28;95361.81;;;7.63;78.18
73024;BME280;72676;47.526;8.538;2024-03-02T06:20:54;95361.38;;;7.67;78.14
73024;BME280;72676;47.526;8.538;2024-03-02T06:23:21;95359.50;;;7.60;78.19
73024;BME280;72676;47.526;8.538;2024-03-02T06:25:47;95366.38;;;7.51;78.14
73024;BME280;72676;47.526;8.538;2024-03-02T06:28:13;95369.81;;;7.52;77.78
73024;BME280;72676;47.526;8.538;2024-03-02T06:30:41;95372.28;;;7.53;78.14
73024;BME280;72676;47.526;8.538;2024-03-02T06:33:09;95372.13;;;7.55;78.23
73024;BME280;72676;47.526;8.538;2024-03-02T06:35:36;95372.09;;;7.64;77.73
73024;BME280;72676;47.526;8.538;2024-03-02T06:38:02;95373.34;;;7.60;78.20
73024;BME280;72676;47.526;8.538;2024-03-02T06:40:29;95373.34;;;7.60;77.78
73024;BME280;72676;47.526;8.538;2024-03-02T06:42:55;95369.69;;;7.53;78.03
73024;BME280;72676;47.526;8.538;2024-03-02T06:45:22;95380.78;;;7.46;78.15
73024;BME280;72676;47.526;8.538;2024-03-02T06:47:49;95380.09;;;7.53;77.97
73024;BME280;72676;47.526;8.538;2024-03-02T06:50:15;95366.78;;;7.47;77.97
73024;BME280;72676;47.526;8.538;2024-03-02T06:52:42;95366.31;;;7.24;78.68
73024;BME280;72676;47.526;8.538;2024-03-02T06:55:09;95376.34;;;7.10;79.19
73024;BME280;72676;47.526;8.538;2024-03-02T06:57:36;95364.41;;;7.17;78.83
73024;BME280;72676;47.526;8.538;2024-03-02T07:00:02;95381.72;;;7.08;79.52
73024;BME280;72676;47.526;8.538;2024-03-02T07:02:31;95364.81;;;7.12;79.18
73024;BME280;72676;47.526;8.538;2024-03-02T07:04:58;95367.44;;;7.22;78.96
73024;BME280;72676;47.526;8.538;2024-03-02T07:07:24;95370.72;;;7.24;79.08
73024;BME280;72676;47.526;8.538;2024-03-02T07:09:51;95377.00;;;7.21;79.42
73024;BME280;72676;47.526;8.538;2024-03-02T07:12:17;95370.72;;;7.24;79.17
73024;BME280;72676;47.526;8.538;2024-03-02T07:14:44;95380.84;;;7.27;79.47
73024;BME280;72676;47.526;8.538;2024-03-02T07:17:29;95376.16;;;7.40;78.66
73024;BME280;72676;47.526;8.538;2024-03-02T07:19:56;95374.34;;;7.50;78.29
73024;BME280;72676;47.526;8.538;2024-03-02T07:22:23;95379.41;;;7.51;78.24
73024;BME280;72676;47.526;8.538;2024-03-02T07:24:49;95373.41;;;7.41;78.74
73024;BME280;72676;47.526;8.538;2024-03-02T07:27:18;95367.94;;;7.35;79.55
73024;BME280;72676;47.526;8.538;2024-03-02T07:29:44;95366.31;;;7.24;80.00
73024;BME280;72676;47.526;8.538;2024-03-02T07:32:10;95367.72;;;7.09;80.53
73024;BME280;72676;47.526;8.538;2024-03-02T07:34:37;95375.38;;;7.11;80.71
73024;BME280;72676;47.526;8.538;2024-03-02T07:37:06;95370.75;;;7.05;80.79
73024;BME280;72676;47.526;8.538;2024-03-02T07:39:33;95367.44;;;7.22;80.72
73024;BME280;72676;47.526;8.538;2024-03-02T07:41:59;95369.69;;;7.34;80.28
73024;BME280;72676;47.526;8.538;2024-03-02T07:44:26;95368.72;;;7.45;79.20
73024;BME280;72676;47.526;8.538;2024-03-02T07:46:53;95368.44;;;7.48;79.17
73024;BME280;72676;47.526;8.538;2024-03-02T07:49:19;95372.53;;;7.50;78.75
73024;BME280;72676;47.526;8.538;2024-03-02T07:51:46;95371.75;;;7.50;78.40
73024;BME280;72676;47.526;8.538;2024-03-02T07:54:12;95367.59;;;7.57;78.42
73024;BME280;72676;47.526;8.538;2024-03-02T07:56:39;95365.69;;;7.59;77.45
73024;BME280;72676;47.526;8.538;2024-03-02T07:59:05;95368.00;;;7.62;78.01
73024;BME280;72676;47.526;8.538;2024-03-02T08:01:32;95363.63;;;7.62;77.76
73024;BME280;72676;47.526;8.538;2024-03-02T08:04:01;95361.56;;;7.56;78.09
73024;BME280;72676;47.526;8.538;2024-03-02T08:06:27;95362.91;;;7.60;78.47
73024;BME280;72676;47.526;8.538;2024-03-02T08:08:54;95364.72;;;7.60;78.19
73024;BME280;72676;47.526;8.538;2024-03-02T08:11:21;95356.22;;;7.58;78.27
73024;BME280;72676;47.526;8.538;2024-03-02T08:13:48;95361.81;;;7.63;78.64
73024;BME280;72676;47.526;8.538;2024-03-02T08:16:16;95362.22;;;7.68;77.83
73024;BME280;72676;47.526;8.538;2024-03-02T08:18:42;95367.06;;;7.80;77.70
73024;BME280;72676;47.526;8.538;2024-03-02T08:21:09;95369.00;;;7.78;77.67
73024;BME280;72676;47.526;8.538;2024-03-02T08:23:36;95356.81;;;7.79;77.28
73024;BME280;72676;47.526;8.538;2024-03-02T08:26:06;95354.09;;;7.71;77.70
73024;BME280;72676;47.526;8.538;2024-03-02T08:28:32;95358.66;;;7.69;78.50
73024;BME280;72676;47.526;8.538;2024-03-02T08:30:59;95354.56;;;7.57;78.64
73024;BME280;72676;47.526;8.538;2024-03-02T08:33:26;95355.75;;;7.72;77.99
73024;BME280;72676;47.526;8.538;2024-03-02T08:35:53;95347.28;;;7.60;78.29
73024;BME280;72676;47.526;8.538;2024-03-02T08:38:19;95351.38;;;7.63;78.84
73024;BME280;72676;47.526;8.538;2024-03-02T08:40:46;95341.03;;;7.53;78.66
73024;BME280;72676;47.526;8.538;2024-03-02T08:43:13;95336.75;;;7.52;78.77
73024;BME280;72676;47.526;8.538;2024-03-02T08:45:39;95343.19;;;7.58;78.61
73024;BME280;72676;47.526;8.538;2024-03-02T08:48:07;95337.16;;;7.48;78.66
73024;BME280;72676;47.526;8.538;2024-03-02T08:50:35;95332.56;;;7.42;79.17
73024;BME280;72676;47.526;8.538;2024-03-02T08:53:03;95330.63;;;7.44;79.76
73024;BME280;72676;47.526;8.538;2024-03-02T08:55:30;95328.56;;;7.38;80.24
73024;BME280;72676;47.526;8.538;2024-03-02T08:57:56;95324.31;;;7.46;79.52
73024;BME280;72676;47.526;8.538;2024-03-02T09:00:23;95320.69;;;7.57;79.58
73024;BME280;72676;47.526;8.538;2024-03-02T09:02:50;95320.69;;;7.57;79.37
73024;BME280;72676;47.526;8.538;2024-03-02T09:05:17;95316.78;;;7.70;78.93
73024;BME280;72676;47.526;8.538;2024-03-02T09:07:43;95315.09;;;7.52;79.19
73024;BME280;72676;47.526;8.538;2024-03-02T09:10:10;95325.81;;;7.49;78.81
73024;BME280;72676;47.526;8.538;2024-03-02T09:12:37;95315.84;;;7.35;78.93
73024;BME280;72676;47.526;8.538;2024-03-02T09:15:04;95319.84;;;7.20;79.46
73024;BME280;72676;47.526;8.538;2024-03-02T09:17:32;95324.75;;;7.32;79.35
73024;BME280;72676;47.526;8.538;2024-03-02T09:19:59;95315.44;;;7.30;79.73
73024;BME280;72676;47.526;8.538;2024-03-02T09:22:25;95309.13;;;6.86;82.21
73024;BME280;72676;47.526;8.538;2024-03-02T09:24:52;95312.63;;;7.14;81.09
73024;BME280;72676;47.526;8.538;2024-03-02T09:27:18;95306.34;;;7.07;81.62
73024;BME280;72676;47.526;8.538;2024-03-02T09:29:45;95301.72;;;6.82;82.82
73024;BME280;72676;47.526;8.538;2024-03-02T09:32:13;95317.25;;;7.20;81.46
73024;BME280;72676;47.526;8.538;2024-03-02T09:34:40;95305.44;;;7.35;81.53
73024;BME280;72676;47.526;8.538;2024-03-02T09:37:07;95306.03;;;7.56;80.75
73024;BME280;72676;47.526;8.538;2024-03-02T09:39:34;95300.69;;;7.57;80.80
73024;BME280;72676;47.526;8.538;2024-03-02T09:42:01;95299.38;;;7.71;79.53
73024;BME280;72676;47.526;8.538;2024-03-02T09:44:29;95296.81;;;7.61;79.50
73024;BME280;72676;47.526;8.538;2024-03-02T09:46:56;95301.13;;;7.80;79.20
73024;BME280;72676;47.526;8.538;2024-03-02T09:49:22;95299.47;;;7.79;78.52
73024;BME280;72676;47.526;8.538;2024-03-02T09:51:49;95290.22;;;7.67;79.55
73024;BME280;72676;47.526;8.538;2024-03-02T09:54:16;95289.50;;;7.92;78.93
73024;BME280;72676;47.526;8.538;2024-03-02T09:56:49;95285.66;;;7.96;78.91
73024;BME280;72676;47.526;8.538;2024-03-02T09:59:15;95276.66;;;8.08;78.56
73024;BME280;72676;47.526;8.538;2024-03-02T10:02:01;95265.34;;;7.99;78.31
73024;BME280;72676;47.526;8.538;2024-03-02T10:04:29;95272.84;;;8.02;79.00
73024;BME280;72676;47.526;8.538;2024-03-02T10:07:16;95275.38;;;7.94;79.03
73024;BME280;72676;47.526;8.538;2024-03-02T10:09:47;95283.50;;;7.91;80.03
73024;BME280;72676;47.526;8.538;2024-03-02T10:12:15;95278.63;;;8.23;78.77
73024;BME280;72676;47.526;8.538;2024-03-02T10:14:42;95285.53;;;8.15;78.51
73024;BME280;72676;47.526;8.538;2024-03-02T10:17:10;95282.22;;;8.22;78.51
73024;BME280;72676;47.526;8.538;2024-03-02T10:19:38;95277.94;;;8.04;78.84
73024;BME280;72676;47.526;8.538;2024-03-02T10:22:07;95273.22;;;8.07;79.19
73024;BME280;72676;47.526;8.538;2024-03-02T10:24:42;95258.94;;;8.11;78.74
73024;BME280;72676;47.526;8.538;2024-03-02T10:27:17;95258.94;;;8.11;79.23
73024;BME280;72676;47.526;8.538;2024-03-02T10:29:47;95263.22;;;8.03;79.76
73024;BME280;72676;47.526;8.538;2024-03-02T10:32:15;95265.13;;;8.10;79.72
73024;BME280;72676;47.526;8.538;2024-03-02T10:34:43;95262.03;;;7.97;80.65
73024;BME280;72676;47.526;8.538;2024-03-02T10:37:11;95257.13;;;8.12;79.74
73024;BME280;72676;47.526;8.538;2024-03-02T10:39:39;95253.47;;;7.87;81.60
73024;BME280;72676;47.526;8.538;2024-03-02T10:42:07;95251.06;;;8.21;80.78
73024;BME280;72676;47.526;8.538;2024-03-02T10:44:34;95251.72;;;8.40;79.97
73024;BME280;72676;47.526;8.538;2024-03-02T10:47:03;95249.31;;;8.47;79.67
73024;BME280;72676;47.526;8.538;2024-03-02T10:49:31;95247.44;;;8.57;78.82
73024;BME280;72676;47.526;8.538;2024-03-02T10:51:58;95238.31;;;8.53;78.91
73024;BME280;72676;47.526;8.538;2024-03-02T10:54:25;95226.22;;;8.52;79.06
73024;BME280;72676;47.526;8.538;2024-03-02T10:56:58;95223.97;;;8.57;78.65
73024;BME280;72676;47.526;8.538;2024-03-02T11:02:00;95214.44;;;8.48;79.68
73024;BME280;72676;47.526;8.538;2024-03-02T11:04:31;95208.31;;;8.57;79.46
73024;BME280;72676;47.526;8.538;2024-03-02T11:07:07;95203.78;;;8.41;80.04
73024;BME280;72676;47.526;8.538;2024-03-02T11:09:35;95206.41;;;8.41;80.10
73024;BME280;72676;47.526;8.538;2024-03-02T11:12:31;95205.22;;;8.36;79.74
73024;BME280;72676;47.526;8.538;2024-03-02T11:15:05;95202.13;;;8.57;79.26
73024;BME280;72676;47.526;8.538;2024-03-02T11:17:37;95198.91;;;8.63;79.11
73024;BME280;72676;47.526;8.538;2024-03-02T11:20:08;95197.97;;;8.72;78.56
73024;BME280;72676;47.526;8.538;2024-03-02T11:22:36;95182.94;;;8.92;78.22
73024;BME280;72676;47.526;8.538;2024-03-02T11:25:03;95192.25;;;8.94;77.94
73024;BME280;72676;47.526;8.538;2024-03-02T11:33:07;95185.22;;;9.70;75.71
73024;BME280;72676;47.526;8.538;2024-03-02T11:35:44;95169.88;;;9.75;74.49
73024;BME280;72676;47.526;8.538;2024-03-02T11:38:14;95174.47;;;9.97;74.13
73024;BME280;72676;47.526;8.538;2024-03-02T11:40:41;95169.13;;;10.06;73.76
73024;BME280;72676;47.526;8.538;2024-03-02T11:43:08;95164.84;;;9.97;73.84
73024;BME280;72676;47.526;8.538;2024-03-02T11:45:36;95161.94;;;10.08;73.90
73024;BME280;72676;47.526;8.538;2024-03-02T11:48:06;95156.19;;;10.45;72.64
73024;BME280;72676;47.526;8.538;2024-03-02T11:50:36;95149.47;;;10.66;72.02
73024;BME280;72676;47.526;8.538;2024-03-02T11:53:07;95146.84;;;10.74;71.51
73024;BME280;72676;47.526;8.538;2024-03-02T11:55:38;95137.59;;;11.02;70.69
73024;BME280;72676;47.526;8.538;2024-03-02T11:58:13;95139.97;;;11.28;69.18
73024;BME280;72676;47.526;8.538;2024-03-02T12:00:39;95130.72;;;11.48;68.42
73024;BME280;72676;47.526;8.538;2024-03-02T12:03:08;95124.31;;;11.50;69.45
73024;BME280;72676;47.526;8.538;2024-03-02T12:05:35;95119.19;;;11.57;69.36
73024;BME280;72676;47.526;8.538;2024-03-02T12:08:03;95128.13;;;11.78;67.42
73024;BME280;72676;47.526;8.538;2024-03-02T12:10:31;95120.00;;;12.10;67.68
73024;BME280;72676;47.526;8.538;2024-03-02T12:13:05;95117.13;;;12.05;66.38
73024;BME280;72676;47.526;8.538;2024-03-02T12:15:35;95112.91;;;11.96;66.40
73024;BME280;72676;47.526;8.538;2024-03-02T12:18:03;95105.81;;;12.19;66.08
73024;BME280;72676;47.526;8.538;2024-03-02T12:20:32;95091.66;;;12.42;65.22
73024;BME280;72676;47.526;8.538;2024-03-02T12:23:02;95079.94;;;12.67;64.22
73024;BME280;72676;47.526;8.538;2024-03-02T12:25:31;95091.53;;;12.73;64.34
73024;BME280;72676;47.526;8.538;2024-03-02T12:28:00;95080.97;;;12.95;63.53
73024;BME280;72676;47.526;8.538;2024-03-02T12:30:29;95076.69;;;13.23;63.12
73024;BME280;72676;47.526;8.538;2024-03-02T12:32:56;95069.47;;;13.61;62.36
73024;BME280;72676;47.526;8.538;2024-03-02T12:35:24;95068.59;;;13.96;60.29
73024;BME280;72676;47.526;8.538;2024-03-02T12:37:52;95053.31;;;14.06;59.46
73024;BME280;72676;47.526;8.538;2024-03-02T12:40:20;95053.41;;;14.40;57.53
73024;BME280;72676;47.526;8.538;2024-03-02T12:42:49;95044.50;;;14.68;56.60
73024;BME280;72676;47.526;8.538;2024-03-02T12:45:16;95047.72;;;14.97;54.99
73024;BME280;72676;47.526;8.538;2024-03-02T12:47:50;95045.75;;;15.12;53.58
73024;BME280;72676;47.526;8.538;2024-03-02T12:50:18;95050.78;;;15.41;52.44
73024;BME280;72676;47.526;8.538;2024-03-02T12:52:51;95046.78;;;15.58;51.69
73024;BME280;72676;47.526;8.538;2024-03-02T12:55:19;95034.06;;;15.81;51.41
73024;BME280;72676;47.526;8.538;2024-03-02T12:57:46;95046.28;;;16.15;50.56
73024;BME280;72676;47.526;8.538;2024-03-02T13:00:18;95030.47;;;16.47;50.65
73024;BME280;72676;47.526;8.538;2024-03-02T13:02:45;95029.63;;;16.73;49.32
73024;BME280;72676;47.526;8.538;2024-03-02T13:05:12;95026.34;;;16.84;48.34
73024;BME280;72676;47.526;8.538;2024-03-02T13:07:40;95018.56;;;17.02;48.47
73024;BME280;72676;47.526;8.538;2024-03-02T13:10:07;95007.50;;;17.24;48.18
73024;BME280;72676;47.526;8.538;2024-03-02T13:12:36;95000.94;;;17.33;46.46
73024;BME280;72676;47.526;8.538;2024-03-02T13:15:04;94999.13;;;17.34;45.37
73024;BME280;72676;47.526;8.538;2024-03-02T13:17:34;95002.19;;;17.24;44.44
73024;BME280;72676;47.526;8.538;2024-03-02T13:20:04;94993.56;;;16.98;45.46
73024;BME280;72676;47.526;8.538;2024-03-02T13:22:35;94999.03;;;16.96;45.35
73024;BME280;72676;47.526;8.538;2024-03-02T13:25:02;94994.94;;;17.13;44.90